sensor_id;sensor_type;location;lat;lon;timestamp;P1;durP1;ratioP1;P2;durP2;ratioP2
74487;SDS011;63019;51.080;13.642;2022-09-09T00:02:31;0.88;;;0.30;;
74487;SDS011;63019;51.080;13.642;2022-09-09T00:03:40;1.55;;;0.45;;
74487;SDS011;63019;51.080;13.642;2022-09-09T00:04:50;0.68;;;0.20;;
74487;SDS011;63019;51.080;13.642;2022-09-09T00:06:11;0.50;;;0.25;;
74487;SDS011;63019;51.080;13.642;2022-09-09T00:11:28;2.35;;;0.30;;
74487;SDS011;63019;51.080;13.642;2022-09-09T00:12:56;1.48;;;0.50;;
74487;SDS011;63019;51.080;13.642;2022-09-09T00:13:59;2.73;;;0.33;;
74487;SDS011;63019;51.080;13.642;2022-09-09T00:15:13;3.42;;;0.32;;
74487;SDS011;63019;51.080;13.642;2022-09-09T00:16:21;6.15;;;0.60;;
74487;SDS011;63019;51.080;13.642;2022-09-09T00:17:43;1.40;;;0.20;;
74487;SDS011;63019;51.080;13.642;2022-09-09T00:20:29;0.40;;;0.20;;
74487;SDS011;63019;51.080;13.642;2022-09-09T00:21:38;1.73;;;0.40;;
74487;SDS011;63019;51.080;13.642;2022-09-09T00:23:15;1.38;;;0.30;;
74487;SDS011;63019;51.080;13.642;2022-09-09T00:25:34;1.02;;;0.20;;
74487;SDS011;63019;51.080;13.642;2022-09-09T00:26:48;2.67;;;0.30;;
74487;SDS011;63019;51.080;13.642;2022-09-09T00:27:54;3.60;;;0.30;;
74487;SDS011;63019;51.080;13.642;2022-09-09T00:30:15;1.98;;;0.30;;
74487;SDS011;63019;51.080;13.642;2022-09-09T00:31:25;4.57;;;0.30;;
74487;SDS011;63019;51.080;13.642;2022-09-09T00:32:29;1.42;;;0.30;;
74487;SDS011;63019;51.080;13.642;2022-09-09T00:33:32;2.45;;;0.38;;
74487;SDS011;63019;51.080;13.642;2022-09-09T00:34:35;1.83;;;0.40;;
74487;SDS011;63019;51.080;13.642;2022-09-09T00:36:41;2.00;;;0.20;;
74487;SDS011;63019;51.080;13.642;2022-09-09T00:37:17;2.25;;;0.30;;
74487;SDS011;63019;51.080;13.642;2022-09-09T00:38:23;0.87;;;0.30;;
74487;SDS011;63019;51.080;13.642;2022-09-09T00:39:37;1.45;;;0.22;;
74487;SDS011;63019;51.080;13.642;2022-09-09T00:43:24;2.15;;;0.20;;
74487;SDS011;63019;51.080;13.642;2022-09-09T00:44:33;2.33;;;0.20;;
74487;SDS011;63019;51.080;13.642;2022-09-09T00:45:46;2.08;;;0.45;;
74487;SDS011;63019;51.080;13.642;2022-09-09T00:50:00;5.78;;;0.60;;
74487;SDS011;63019;51.080;13.642;2022-09-09T00:51:23;1.70;;;0.20;;
74487;SDS011;63019;51.080;13.642;2022-09-09T00:54:07;0.90;;;0.30;;
74487;SDS011;63019;51.080;13.642;2022-09-09T00:55:19;1.27;;;0.20;;
74487;SDS011;63019;51.080;13.642;2022-09-09T00:56:47;6.18;;;0.47;;
74487;SDS011;63019;51.080;13.642;2022-09-09T00:57:57;4.13;;;0.63;;
74487;SDS011;63019;51.080;13.642;2022-09-09T01:00:33;3.58;;;0.30;;
74487;SDS011;63019;51.080;13.642;2022-09-09T01:01:42;3.63;;;0.40;;
74487;SDS011;63019;51.080;13.642;2022-09-09T01:02:52;1.75;;;0.30;;
74487;SDS011;63019;51.080;13.642;2022-09-09T01:04:00;1.03;;;0.20;;
74487;SDS011;63019;51.080;13.642;2022-09-09T01:05:05;2.83;;;0.30;;
74487;SDS011;63019;51.080;13.642;2022-09-09T01:06:19;3.10;;;0.40;;
74487;SDS011;63019;51.080;13.642;2022-09-09T01:07:25;2.42;;;0.30;;
74487;SDS011;63019;51.080;13.642;2022-09-09T01:09:56;1.60;;;0.30;;
74487;SDS011;63019;51.080;13.642;2022-09-09T01:10:59;1.17;;;0.20;;
74487;SDS011;63019;51.080;13.642;2022-09-09T01:13:13;1.70;;;0.40;;
74487;SDS011;63019;51.080;13.642;2022-09-09T01:15:40;1.33;;;0.27;;
74487;SDS011;63019;51.080;13.642;2022-09-09T01:16:43;4.18;;;0.40;;
74487;SDS011;63019;51.080;13.642;2022-09-09T01:17:50;3.88;;;0.30;;
74487;SDS011;63019;51.080;13.642;2022-09-09T01:19:14;0.85;;;0.30;;
74487;SDS011;63019;51.080;13.642;2022-09-09T01:20:27;6.32;;;0.40;;
74487;SDS011;63019;51.080;13.642;2022-09-09T01:21:50;4.35;;;0.50;;
74487;SDS011;63019;51.080;13.642;2022-09-09T01:23:12;7.15;;;1.13;;
74487;SDS011;63019;51.080;13.642;2022-09-09T01:24:38;1.77;;;0.28;;
74487;SDS011;63019;51.080;13.642;2022-09-09T01:27:12;1.48;;;0.30;;
74487;SDS011;63019;51.080;13.642;2022-09-09T01:28:20;1.60;;;0.30;;
74487;SDS011;63019;51.080;13.642;2022-09-09T01:29:26;2.88;;;0.40;;
74487;SDS011;63019;51.080;13.642;2022-09-09T01:30:28;2.53;;;0.47;;
74487;SDS011;63019;51.080;13.642;2022-09-09T01:31:31;2.30;;;0.43;;
74487;SDS011;63019;51.080;13.642;2022-09-09T01:32:42;2.47;;;0.45;;
74487;SDS011;63019;51.080;13.642;2022-09-09T01:33:45;1.02;;;0.30;;
74487;SDS011;63019;51.080;13.642;2022-09-09T01:34:47;1.23;;;0.30;;
74487;SDS011;63019;51.080;13.642;2022-09-09T01:35:57;0.85;;;0.20;;
74487;SDS011;63019;51.080;13.642;2022-09-09T01:37:09;1.30;;;0.30;;
74487;SDS011;63019;51.080;13.642;2022-09-09T01:38:13;2.05;;;0.40;;
74487;SDS011;63019;51.080;13.642;2022-09-09T01:39:15;1.00;;;0.20;;
74487;SDS011;63019;51.080;13.642;2022-09-09T01:40:18;1.20;;;0.28;;
74487;SDS011;63019;51.080;13.642;2022-09-09T01:41:20;1.92;;;0.30;;
74487;SDS011;63019;51.080;13.642;2022-09-09T01:42:22;3.13;;;0.40;;
74487;SDS011;63019;51.080;13.642;2022-09-09T01:43:24;1.40;;;0.20;;
74487;SDS011;63019;51.080;13.642;2022-09-09T01:44:27;1.42;;;0.32;;
74487;SDS011;63019;51.080;13.642;2022-09-09T01:45:30;2.08;;;0.40;;
74487;SDS011;63019;51.080;13.642;2022-09-09T01:46:32;1.20;;;0.28;;
74487;SDS011;63019;51.080;13.642;2022-09-09T01:47:34;2.20;;;0.28;;
74487;SDS011;63019;51.080;13.642;2022-09-09T01:48:37;0.80;;;0.40;;
74487;SDS011;63019;51.080;13.642;2022-09-09T01:49:39;2.83;;;0.40;;
74487;SDS011;63019;51.080;13.642;2022-09-09T01:50:40;2.80;;;0.40;;
74487;SDS011;63019;51.080;13.642;2022-09-09T01:51:42;0.77;;;0.30;;
74487;SDS011;63019;51.080;13.642;2022-09-09T01:52:48;1.10;;;0.43;;
74487;SDS011;63019;51.080;13.642;2022-09-09T01:53:53;1.80;;;0.38;;
74487;SDS011;63019;51.080;13.642;2022-09-09T01:54:55;1.42;;;0.47;;
74487;SDS011;63019;51.080;13.642;2022-09-09T01:57:14;2.42;;;0.20;;
74487;SDS011;63019;51.080;13.642;2022-09-09T01:59:03;2.63;;;0.40;;
74487;SDS011;63019;51.080;13.642;2022-09-09T01:59:47;3.78;;;0.50;;
74487;SDS011;63019;51.080;13.642;2022-09-09T02:01:06;2.90;;;0.30;;
74487;SDS011;63019;51.080;13.642;2022-09-09T02:03:33;2.85;;;0.22;;
74487;SDS011;63019;51.080;13.642;2022-09-09T02:05:44;5.90;;;0.60;;
74487;SDS011;63019;51.080;13.642;2022-09-09T02:06:52;1.48;;;0.20;;
74487;SDS011;63019;51.080;13.642;2022-09-09T02:08:20;2.90;;;0.40;;
74487;SDS011;63019;51.080;13.642;2022-09-09T02:09:25;1.63;;;0.40;;
74487;SDS011;63019;51.080;13.642;2022-09-09T02:10:31;2.80;;;0.47;;
74487;SDS011;63019;51.080;13.642;2022-09-09T02:11:40;3.10;;;0.32;;
74487;SDS011;63019;51.080;13.642;2022-09-09T02:13:10;3.90;;;0.30;;
74487;SDS011;63019;51.080;13.642;2022-09-09T02:14:16;4.47;;;0.40;;
74487;SDS011;63019;51.080;13.642;2022-09-09T02:15:26;2.78;;;0.40;;
74487;SDS011;63019;51.080;13.642;2022-09-09T02:16:40;1.05;;;0.22;;
74487;SDS011;63019;51.080;13.642;2022-09-09T02:17:53;1.75;;;0.40;;
74487;SDS011;63019;51.080;13.642;2022-09-09T02:19:03;3.92;;;0.40;;
74487;SDS011;63019;51.080;13.642;2022-09-09T02:20:09;2.83;;;0.50;;
74487;SDS011;63019;51.080;13.642;2022-09-09T02:21:13;1.80;;;0.30;;
74487;SDS011;63019;51.080;13.642;2022-09-09T02:22:20;5.05;;;0.38;;
74487;SDS011;63019;51.080;13.642;2022-09-09T02:23:25;0.93;;;0.30;;
74487;SDS011;63019;51.080;13.642;2022-09-09T02:24:30;3.23;;;0.30;;
74487;SDS011;63019;51.080;13.642;2022-09-09T02:25:36;1.85;;;0.30;;
74487;SDS011;63019;51.080;13.642;2022-09-09T02:26:39;0.45;;;0.20;;
74487;SDS011;63019;51.080;13.642;2022-09-09T02:27:43;2.97;;;0.30;;
74487;SDS011;63019;51.080;13.642;2022-09-09T02:28:48;0.80;;;0.30;;
74487;SDS011;63019;51.080;13.642;2022-09-09T02:29:51;6.30;;;0.43;;
74487;SDS011;63019;51.080;13.642;2022-09-09T02:30:56;3.53;;;0.30;;
74487;SDS011;63019;51.080;13.642;2022-09-09T02:32:00;3.88;;;0.30;;
74487;SDS011;63019;51.080;13.642;2022-09-09T02:33:07;2.65;;;0.47;;
74487;SDS011;63019;51.080;13.642;2022-09-09T02:34:11;3.60;;;0.30;;
74487;SDS011;63019;51.080;13.642;2022-09-09T02:35:17;0.93;;;0.30;;
74487;SDS011;63019;51.080;13.642;2022-09-09T02:36:22;0.30;;;0.17;;
74487;SDS011;63019;51.080;13.642;2022-09-09T02:37:29;3.88;;;0.60;;
74487;SDS011;63019;51.080;13.642;2022-09-09T02:38:37;3.42;;;0.40;;
74487;SDS011;63019;51.080;13.642;2022-09-09T02:39:43;2.20;;;0.20;;
74487;SDS011;63019;51.080;13.642;2022-09-09T02:40:45;2.17;;;0.30;;
74487;SDS011;63019;51.080;13.642;2022-09-09T02:41:47;3.60;;;0.30;;
74487;SDS011;63019;51.080;13.642;2022-09-09T02:42:49;1.15;;;0.10;;
74487;SDS011;63019;51.080;13.642;2022-09-09T02:43:51;1.48;;;0.30;;
74487;SDS011;63019;51.080;13.642;2022-09-09T02:44:52;0.98;;;0.25;;
74487;SDS011;63019;51.080;13.642;2022-09-09T02:48:37;2.20;;;0.40;;
74487;SDS011;63019;51.080;13.642;2022-09-09T02:52:19;1.83;;;0.45;;
74487;SDS011;63019;51.080;13.642;2022-09-09T02:55:04;0.88;;;0.20;;
74487;SDS011;63019;51.080;13.642;2022-09-09T02:56:14;4.00;;;0.40;;
74487;SDS011;63019;51.080;13.642;2022-09-09T02:57:22;1.63;;;0.30;;
74487;SDS011;63019;51.080;13.642;2022-09-09T02:58:27;2.67;;;0.30;;
74487;SDS011;63019;51.080;13.642;2022-09-09T02:59:29;0.63;;;0.22;;
74487;SDS011;63019;51.080;13.642;2022-09-09T03:00:31;1.95;;;0.30;;
74487;SDS011;63019;51.080;13.642;2022-09-09T03:01:33;3.70;;;0.40;;
74487;SDS011;63019;51.080;13.642;2022-09-09T03:02:36;0.82;;;0.30;;
74487;SDS011;63019;51.080;13.642;2022-09-09T03:03:39;1.42;;;0.30;;
74487;SDS011;63019;51.080;13.642;2022-09-09T03:04:42;2.90;;;0.30;;
74487;SDS011;63019;51.080;13.642;2022-09-09T03:05:45;2.55;;;0.30;;
74487;SDS011;63019;51.080;13.642;2022-09-09T03:06:47;6.47;;;0.30;;
74487;SDS011;63019;51.080;13.642;2022-09-09T03:07:49;4.72;;;0.40;;
74487;SDS011;63019;51.080;13.642;2022-09-09T03:08:51;4.53;;;0.27;;
74487;SDS011;63019;51.080;13.642;2022-09-09T03:09:53;3.75;;;0.20;;
74487;SDS011;63019;51.080;13.642;2022-09-09T03:10:57;2.25;;;0.30;;
74487;SDS011;63019;51.080;13.642;2022-09-09T03:12:00;3.17;;;0.30;;
74487;SDS011;63019;51.080;13.642;2022-09-09T03:13:01;4.68;;;0.45;;
74487;SDS011;63019;51.080;13.642;2022-09-09T03:14:05;4.60;;;0.47;;
74487;SDS011;63019;51.080;13.642;2022-09-09T03:15:07;2.17;;;0.28;;
74487;SDS011;63019;51.080;13.642;2022-09-09T03:16:09;3.63;;;0.30;;
74487;SDS011;63019;51.080;13.642;2022-09-09T03:17:11;2.17;;;0.28;;
74487;SDS011;63019;51.080;13.642;2022-09-09T03:18:12;2.42;;;0.30;;
74487;SDS011;63019;51.080;13.642;2022-09-09T03:19:14;3.10;;;0.30;;
74487;SDS011;63019;51.080;13.642;2022-09-09T03:20:16;1.92;;;0.30;;
74487;SDS011;63019;51.080;13.642;2022-09-09T03:21:18;4.97;;;0.30;;
74487;SDS011;63019;51.080;13.642;2022-09-09T03:22:19;1.92;;;0.30;;
74487;SDS011;63019;51.080;13.642;2022-09-09T03:23:22;2.20;;;0.30;;
74487;SDS011;63019;51.080;13.642;2022-09-09T03:24:24;3.05;;;0.38;;
74487;SDS011;63019;51.080;13.642;2022-09-09T03:25:26;1.48;;;0.30;;
74487;SDS011;63019;51.080;13.642;2022-09-09T03:26:28;3.05;;;0.30;;
74487;SDS011;63019;51.080;13.642;2022-09-09T03:27:30;2.13;;;0.30;;
74487;SDS011;63019;51.080;13.642;2022-09-09T03:28:31;5.72;;;0.60;;
74487;SDS011;63019;51.080;13.642;2022-09-09T03:29:34;2.77;;;0.20;;
74487;SDS011;63019;51.080;13.642;2022-09-09T03:30:36;2.78;;;0.40;;
74487;SDS011;63019;51.080;13.642;2022-09-09T03:31:39;3.10;;;0.75;;
74487;SDS011;63019;51.080;13.642;2022-09-09T03:32:41;3.75;;;0.32;;
74487;SDS011;63019;51.080;13.642;2022-09-09T03:33:48;1.35;;;0.30;;
74487;SDS011;63019;51.080;13.642;2022-09-09T03:34:50;2.33;;;0.60;;
74487;SDS011;63019;51.080;13.642;2022-09-09T03:35:53;2.80;;;0.50;;
74487;SDS011;63019;51.080;13.642;2022-09-09T03:36:57;2.50;;;0.70;;
74487;SDS011;63019;51.080;13.642;2022-09-09T03:37:59;0.40;;;0.20;;
74487;SDS011;63019;51.080;13.642;2022-09-09T03:39:02;2.70;;;0.40;;
74487;SDS011;63019;51.080;13.642;2022-09-09T03:40:04;4.37;;;0.40;;
74487;SDS011;63019;51.080;13.642;2022-09-09T03:41:07;6.07;;;0.50;;
74487;SDS011;63019;51.080;13.642;2022-09-09T03:42:11;1.83;;;0.50;;
74487;SDS011;63019;51.080;13.642;2022-09-09T03:43:15;4.47;;;0.25;;
74487;SDS011;63019;51.080;13.642;2022-09-09T03:44:17;5.65;;;0.45;;
74487;SDS011;63019;51.080;13.642;2022-09-09T03:45:19;1.85;;;0.30;;
74487;SDS011;63019;51.080;13.642;2022-09-09T03:46:22;1.05;;;0.40;;
74487;SDS011;63019;51.080;13.642;2022-09-09T03:47:25;4.60;;;0.60;;
74487;SDS011;63019;51.080;13.642;2022-09-09T03:48:27;7.82;;;0.57;;
74487;SDS011;63019;51.080;13.642;2022-09-09T03:49:29;3.80;;;0.32;;
74487;SDS011;63019;51.080;13.642;2022-09-09T03:50:31;5.90;;;0.43;;
74487;SDS011;63019;51.080;13.642;2022-09-09T03:51:33;1.73;;;0.43;;
74487;SDS011;63019;51.080;13.642;2022-09-09T03:52:37;2.33;;;0.43;;
74487;SDS011;63019;51.080;13.642;2022-09-09T03:53:40;0.90;;;0.38;;
74487;SDS011;63019;51.080;13.642;2022-09-09T03:54:42;3.95;;;0.63;;
74487;SDS011;63019;51.080;13.642;2022-09-09T03:55:47;8.68;;;0.50;;
74487;SDS011;63019;51.080;13.642;2022-09-09T03:56:56;1.58;;;0.43;;
74487;SDS011;63019;51.080;13.642;2022-09-09T03:57:59;2.10;;;0.55;;
74487;SDS011;63019;51.080;13.642;2022-09-09T03:59:01;3.92;;;0.60;;
74487;SDS011;63019;51.080;13.642;2022-09-09T04:00:04;2.28;;;0.57;;
74487;SDS011;63019;51.080;13.642;2022-09-09T04:01:11;2.33;;;0.70;;
74487;SDS011;63019;51.080;13.642;2022-09-09T04:02:14;4.38;;;0.60;;
74487;SDS011;63019;51.080;13.642;2022-09-09T04:03:16;2.75;;;0.60;;
74487;SDS011;63019;51.080;13.642;2022-09-09T04:04:18;6.18;;;0.75;;
74487;SDS011;63019;51.080;13.642;2022-09-09T04:05:21;2.58;;;0.57;;
74487;SDS011;63019;51.080;13.642;2022-09-09T04:06:22;2.95;;;0.60;;
74487;SDS011;63019;51.080;13.642;2022-09-09T04:07:24;3.72;;;0.70;;
74487;SDS011;63019;51.080;13.642;2022-09-09T04:08:28;2.88;;;0.60;;
74487;SDS011;63019;51.080;13.642;2022-09-09T04:09:32;4.30;;;0.55;;
74487;SDS011;63019;51.080;13.642;2022-09-09T04:10:35;1.20;;;0.60;;
74487;SDS011;63019;51.080;13.642;2022-09-09T04:11:38;2.67;;;0.60;;
74487;SDS011;63019;51.080;13.642;2022-09-09T04:12:39;5.38;;;0.70;;
74487;SDS011;63019;51.080;13.642;2022-09-09T04:13:41;4.95;;;1.20;;
74487;SDS011;63019;51.080;13.642;2022-09-09T04:14:43;1.77;;;0.75;;
74487;SDS011;63019;51.080;13.642;2022-09-09T04:15:55;7.32;;;0.65;;
74487;SDS011;63019;51.080;13.642;2022-09-09T04:16:58;1.67;;;0.68;;
74487;SDS011;63019;51.080;13.642;2022-09-09T04:18:00;1.98;;;0.50;;
74487;SDS011;63019;51.080;13.642;2022-09-09T04:19:03;6.97;;;1.25;;
74487;SDS011;63019;51.080;13.642;2022-09-09T04:20:05;3.95;;;0.52;;
74487;SDS011;63019;51.080;13.642;2022-09-09T04:21:09;5.75;;;0.75;;
74487;SDS011;63019;51.080;13.642;2022-09-09T04:22:13;2.03;;;0.50;;
74487;SDS011;63019;51.080;13.642;2022-09-09T04:23:14;14.02;;;1.08;;
74487;SDS011;63019;51.080;13.642;2022-09-09T04:24:17;3.65;;;0.60;;
74487;SDS011;63019;51.080;13.642;2022-09-09T04:25:19;0.90;;;0.45;;
74487;SDS011;63019;51.080;13.642;2022-09-09T04:26:21;3.38;;;0.70;;
74487;SDS011;63019;51.080;13.642;2022-09-09T04:27:23;2.95;;;0.90;;
74487;SDS011;63019;51.080;13.642;2022-09-09T04:28:26;2.17;;;0.60;;
74487;SDS011;63019;51.080;13.642;2022-09-09T04:29:30;3.53;;;0.70;;
74487;SDS011;63019;51.080;13.642;2022-09-09T04:30:31;10.13;;;0.68;;
74487;SDS011;63019;51.080;13.642;2022-09-09T04:31:33;4.47;;;0.80;;
74487;SDS011;63019;51.080;13.642;2022-09-09T04:32:36;2.73;;;0.67;;
74487;SDS011;63019;51.080;13.642;2022-09-09T04:33:38;2.00;;;0.60;;
74487;SDS011;63019;51.080;13.642;2022-09-09T04:34:40;4.13;;;0.57;;
74487;SDS011;63019;51.080;13.642;2022-09-09T04:35:46;2.88;;;0.70;;
74487;SDS011;63019;51.080;13.642;2022-09-09T04:36:49;3.72;;;0.70;;
74487;SDS011;63019;51.080;13.642;2022-09-09T04:37:52;6.70;;;0.80;;
74487;SDS011;63019;51.080;13.642;2022-09-09T04:38:54;3.03;;;0.80;;
74487;SDS011;63019;51.080;13.642;2022-09-09T04:39:56;6.78;;;0.70;;
74487;SDS011;63019;51.080;13.642;2022-09-09T04:40:58;3.55;;;0.70;;
74487;SDS011;63019;51.080;13.642;2022-09-09T04:41:59;6.38;;;0.82;;
74487;SDS011;63019;51.080;13.642;2022-09-09T04:43:02;7.50;;;0.90;;
74487;SDS011;63019;51.080;13.642;2022-09-09T04:44:09;1.60;;;0.60;;
74487;SDS011;63019;51.080;13.642;2022-09-09T04:45:11;1.38;;;0.55;;
74487;SDS011;63019;51.080;13.642;2022-09-09T04:46:14;6.15;;;1.45;;
74487;SDS011;63019;51.080;13.642;2022-09-09T04:47:18;3.58;;;0.60;;
74487;SDS011;63019;51.080;13.642;2022-09-09T04:48:20;5.78;;;0.70;;
74487;SDS011;63019;51.080;13.642;2022-09-09T04:49:22;3.80;;;0.55;;
74487;SDS011;63019;51.080;13.642;2022-09-09T04:50:24;1.33;;;0.60;;
74487;SDS011;63019;51.080;13.642;2022-09-09T04:51:26;9.18;;;0.70;;
74487;SDS011;63019;51.080;13.642;2022-09-09T04:52:29;5.18;;;0.80;;
74487;SDS011;63019;51.080;13.642;2022-09-09T04:53:31;6.53;;;0.97;;
74487;SDS011;63019;51.080;13.642;2022-09-09T04:54:35;3.63;;;0.60;;
74487;SDS011;63019;51.080;13.642;2022-09-09T04:55:36;5.05;;;0.70;;
74487;SDS011;63019;51.080;13.642;2022-09-09T04:56:38;5.93;;;0.80;;
74487;SDS011;63019;51.080;13.642;2022-09-09T04:57:40;3.97;;;1.00;;
74487;SDS011;63019;51.080;13.642;2022-09-09T04:58:42;3.88;;;0.98;;
74487;SDS011;63019;51.080;13.642;2022-09-09T04:59:44;4.45;;;0.70;;
74487;SDS011;63019;51.080;13.642;2022-09-09T05:00:47;2.78;;;0.68;;
74487;SDS011;63019;51.080;13.642;2022-09-09T05:01:48;2.10;;;0.70;;
74487;SDS011;63019;51.080;13.642;2022-09-09T05:02:51;1.67;;;0.63;;
74487;SDS011;63019;51.080;13.642;2022-09-09T05:03:53;5.70;;;0.73;;
74487;SDS011;63019;51.080;13.642;2022-09-09T05:04:54;3.58;;;0.90;;
74487;SDS011;63019;51.080;13.642;2022-09-09T05:06:30;5.00;;;0.70;;
74487;SDS011;63019;51.080;13.642;2022-09-09T05:07:24;3.13;;;0.70;;
74487;SDS011;63019;51.080;13.642;2022-09-09T05:08:28;2.47;;;1.00;;
74487;SDS011;63019;51.080;13.642;2022-09-09T05:09:30;4.68;;;0.90;;
74487;SDS011;63019;51.080;13.642;2022-09-09T05:10:32;2.80;;;0.60;;
74487;SDS011;63019;51.080;13.642;2022-09-09T05:11:34;2.25;;;0.70;;
74487;SDS011;63019;51.080;13.642;2022-09-09T05:12:37;2.88;;;0.70;;
74487;SDS011;63019;51.080;13.642;2022-09-09T05:13:39;5.25;;;0.70;;
74487;SDS011;63019;51.080;13.642;2022-09-09T05:14:42;5.87;;;0.87;;
74487;SDS011;63019;51.080;13.642;2022-09-09T05:15:51;4.65;;;0.80;;
74487;SDS011;63019;51.080;13.642;2022-09-09T05:16:54;6.95;;;1.10;;
74487;SDS011;63019;51.080;13.642;2022-09-09T05:18:00;2.78;;;0.90;;
74487;SDS011;63019;51.080;13.642;2022-09-09T05:19:03;5.78;;;1.02;;
74487;SDS011;63019;51.080;13.642;2022-09-09T05:20:05;2.03;;;0.85;;
74487;SDS011;63019;51.080;13.642;2022-09-09T05:21:11;5.13;;;1.00;;
74487;SDS011;63019;51.080;13.642;2022-09-09T05:22:18;1.85;;;0.85;;
74487;SDS011;63019;51.080;13.642;2022-09-09T05:23:24;2.47;;;0.82;;
74487;SDS011;63019;51.080;13.642;2022-09-09T05:24:25;5.70;;;0.82;;
74487;SDS011;63019;51.080;13.642;2022-09-09T05:25:27;6.17;;;1.10;;
74487;SDS011;63019;51.080;13.642;2022-09-09T05:26:29;3.08;;;0.80;;
74487;SDS011;63019;51.080;13.642;2022-09-09T05:27:33;3.10;;;0.85;;
74487;SDS011;63019;51.080;13.642;2022-09-09T05:28:35;8.73;;;1.10;;
74487;SDS011;63019;51.080;13.642;2022-09-09T05:29:37;4.18;;;1.00;;
74487;SDS011;63019;51.080;13.642;2022-09-09T05:30:39;4.88;;;0.80;;
74487;SDS011;63019;51.080;13.642;2022-09-09T05:31:41;5.30;;;1.00;;
74487;SDS011;63019;51.080;13.642;2022-09-09T05:32:42;2.60;;;0.98;;
74487;SDS011;63019;51.080;13.642;2022-09-09T05:33:44;3.25;;;0.80;;
74487;SDS011;63019;51.080;13.642;2022-09-09T05:34:47;3.50;;;0.75;;
74487;SDS011;63019;51.080;13.642;2022-09-09T05:35:54;2.70;;;0.80;;
74487;SDS011;63019;51.080;13.642;2022-09-09T05:37:03;5.45;;;1.00;;
74487;SDS011;63019;51.080;13.642;2022-09-09T05:38:05;3.03;;;1.10;;
74487;SDS011;63019;51.080;13.642;2022-09-09T05:39:07;4.25;;;0.98;;
74487;SDS011;63019;51.080;13.642;2022-09-09T05:40:09;2.67;;;0.90;;
74487;SDS011;63019;51.080;13.642;2022-09-09T05:41:12;7.95;;;0.95;;
74487;SDS011;63019;51.080;13.642;2022-09-09T05:42:16;4.45;;;1.00;;
74487;SDS011;63019;51.080;13.642;2022-09-09T05:43:20;3.63;;;0.90;;
74487;SDS011;63019;51.080;13.642;2022-09-09T05:44:22;6.03;;;1.05;;
74487;SDS011;63019;51.080;13.642;2022-09-09T05:45:28;6.55;;;0.85;;
74487;SDS011;63019;51.080;13.642;2022-09-09T05:46:30;2.53;;;1.10;;
74487;SDS011;63019;51.080;13.642;2022-09-09T05:47:32;11.90;;;1.05;;
74487;SDS011;63019;51.080;13.642;2022-09-09T05:48:35;4.78;;;1.05;;
74487;SDS011;63019;51.080;13.642;2022-09-09T05:49:38;1.75;;;0.93;;
74487;SDS011;63019;51.080;13.642;2022-09-09T05:50:40;5.88;;;0.90;;
74487;SDS011;63019;51.080;13.642;2022-09-09T05:51:43;4.53;;;1.10;;
74487;SDS011;63019;51.080;13.642;2022-09-09T05:52:45;4.32;;;1.00;;
74487;SDS011;63019;51.080;13.642;2022-09-09T05:53:47;1.83;;;0.82;;
74487;SDS011;63019;51.080;13.642;2022-09-09T05:54:49;5.75;;;1.00;;
74487;SDS011;63019;51.080;13.642;2022-09-09T05:56:25;5.05;;;1.15;;
74487;SDS011;63019;51.080;13.642;2022-09-09T05:57:20;5.80;;;1.20;;
74487;SDS011;63019;51.080;13.642;2022-09-09T05:58:22;3.75;;;1.00;;
74487;SDS011;63019;51.080;13.642;2022-09-09T05:59:25;4.38;;;1.70;;
74487;SDS011;63019;51.080;13.642;2022-09-09T06:00:27;6.57;;;1.00;;
74487;SDS011;63019;51.080;13.642;2022-09-09T06:01:30;6.65;;;0.93;;
74487;SDS011;63019;51.080;13.642;2022-09-09T06:02:33;5.95;;;1.20;;
74487;SDS011;63019;51.080;13.642;2022-09-09T06:03:35;3.50;;;1.02;;
74487;SDS011;63019;51.080;13.642;2022-09-09T06:04:39;10.55;;;1.65;;
74487;SDS011;63019;51.080;13.642;2022-09-09T06:05:40;9.38;;;1.10;;
74487;SDS011;63019;51.080;13.642;2022-09-09T06:06:42;5.60;;;0.90;;
74487;SDS011;63019;51.080;13.642;2022-09-09T06:07:44;2.47;;;0.90;;
74487;SDS011;63019;51.080;13.642;2022-09-09T06:08:46;3.10;;;1.02;;
74487;SDS011;63019;51.080;13.642;2022-09-09T06:09:48;3.33;;;1.08;;
74487;SDS011;63019;51.080;13.642;2022-09-09T06:10:49;5.40;;;1.10;;
74487;SDS011;63019;51.080;13.642;2022-09-09T06:11:51;1.98;;;0.88;;
74487;SDS011;63019;51.080;13.642;2022-09-09T06:12:53;6.20;;;1.20;;
74487;SDS011;63019;51.080;13.642;2022-09-09T06:13:54;4.63;;;1.00;;
74487;SDS011;63019;51.080;13.642;2022-09-09T06:14:56;7.80;;;1.08;;
74487;SDS011;63019;51.080;13.642;2022-09-09T06:15:58;3.35;;;1.20;;
74487;SDS011;63019;51.080;13.642;2022-09-09T06:17:00;4.43;;;1.05;;
74487;SDS011;63019;51.080;13.642;2022-09-09T06:18:03;4.67;;;1.00;;
74487;SDS011;63019;51.080;13.642;2022-09-09T06:19:05;3.45;;;1.00;;
74487;SDS011;63019;51.080;13.642;2022-09-09T06:20:07;6.95;;;1.10;;
74487;SDS011;63019;51.080;13.642;2022-09-09T06:21:20;8.93;;;0.95;;
74487;SDS011;63019;51.080;13.642;2022-09-09T06:22:23;3.13;;;1.00;;
74487;SDS011;63019;51.080;13.642;2022-09-09T06:23:25;3.67;;;1.00;;
74487;SDS011;63019;51.080;13.642;2022-09-09T06:24:27;5.97;;;1.00;;
74487;SDS011;63019;51.080;13.642;2022-09-09T06:25:31;8.70;;;1.23;;
74487;SDS011;63019;51.080;13.642;2022-09-09T06:26:34;6.00;;;1.13;;
74487;SDS011;63019;51.080;13.642;2022-09-09T06:27:37;5.28;;;1.20;;
74487;SDS011;63019;51.080;13.642;2022-09-09T06:28:39;3.67;;;1.00;;
74487;SDS011;63019;51.080;13.642;2022-09-09T06:29:41;8.77;;;1.25;;
74487;SDS011;63019;51.080;13.642;2022-09-09T06:30:42;3.38;;;1.05;;
74487;SDS011;63019;51.080;13.642;2022-09-09T06:31:44;7.20;;;1.02;;
74487;SDS011;63019;51.080;13.642;2022-09-09T06:32:46;3.42;;;1.02;;
74487;SDS011;63019;51.080;13.642;2022-09-09T06:33:48;7.45;;;1.20;;
74487;SDS011;63019;51.080;13.642;2022-09-09T06:34:51;5.68;;;0.90;;
74487;SDS011;63019;51.080;13.642;2022-09-09T06:35:54;3.53;;;1.08;;
74487;SDS011;63019;51.080;13.642;2022-09-09T06:36:58;4.10;;;1.00;;
74487;SDS011;63019;51.080;13.642;2022-09-09T06:38:00;6.60;;;0.90;;
74487;SDS011;63019;51.080;13.642;2022-09-09T06:39:01;4.17;;;1.10;;
74487;SDS011;63019;51.080;13.642;2022-09-09T06:40:03;5.38;;;2.08;;
74487;SDS011;63019;51.080;13.642;2022-09-09T06:41:06;1.92;;;1.13;;
74487;SDS011;63019;51.080;13.642;2022-09-09T06:42:08;5.28;;;1.00;;
74487;SDS011;63019;51.080;13.642;2022-09-09T06:43:10;3.25;;;1.00;;
74487;SDS011;63019;51.080;13.642;2022-09-09T06:44:12;18.15;;;1.38;;
74487;SDS011;63019;51.080;13.642;2022-09-09T06:45:14;3.78;;;1.02;;
74487;SDS011;63019;51.080;13.642;2022-09-09T06:46:17;3.53;;;0.80;;
74487;SDS011;63019;51.080;13.642;2022-09-09T06:47:29;4.80;;;0.90;;
74487;SDS011;63019;51.080;13.642;2022-09-09T06:48:31;6.65;;;1.20;;
74487;SDS011;63019;51.080;13.642;2022-09-09T06:49:33;2.27;;;0.70;;
74487;SDS011;63019;51.080;13.642;2022-09-09T06:50:36;3.83;;;1.00;;
74487;SDS011;63019;51.080;13.642;2022-09-09T06:51:37;4.95;;;0.98;;
74487;SDS011;63019;51.080;13.642;2022-09-09T06:52:45;6.35;;;0.90;;
74487;SDS011;63019;51.080;13.642;2022-09-09T06:53:56;2.38;;;0.77;;
74487;SDS011;63019;51.080;13.642;2022-09-09T06:54:59;5.45;;;1.00;;
74487;SDS011;63019;51.080;13.642;2022-09-09T06:56:01;2.00;;;0.80;;
74487;SDS011;63019;51.080;13.642;2022-09-09T06:57:24;5.38;;;0.80;;
74487;SDS011;63019;51.080;13.642;2022-09-09T06:58:41;5.43;;;0.95;;
74487;SDS011;63019;51.080;13.642;2022-09-09T06:59:45;2.28;;;1.00;;
74487;SDS011;63019;51.080;13.642;2022-09-09T07:00:46;3.60;;;0.90;;